Time;durP1;ratioP1;P1;durP2;ratioP2;P2;SDS_P1;SDS_P2;PMS_P1;PMS_P2;Temp;Humidity;BMP_temperature;BMP_pressure;BME280_temperature;BME280_humidity;BME280_pressure;Samples;Min_cycle;Max_cycle;Signal;HPM_P1;HPM_P2
2022/05/29 00:02:26;;;;;;;7.73;2.90;;;;;;;;;;5045278;28;20310;-76
2022/05/29 00:04:54;;;;;;;6.63;2.97;;;;;;;;;;5045021;28;20576;-75
2022/05/29 00:07:21;;;;;;;8.30;2.97;;;;;;;;;;5044343;28;20207;-76
2022/05/29 00:09:49;;;;;;;12.37;3.00;;;;;;;;;;5043148;28;20208;-76
2022/05/29 00:12:17;;;;;;;11.67;4.17;;;;;;;;;;5045797;28;20836;-75
2022/05/29 00:14:45;;;;;;;9.63;2.87;;;;;;;;;;5046586;28;20210;-75
2022/05/29 00:17:12;;;;;;;8.67;2.80;;;;;;;;;;5045742;28;20250;-75
2022/05/29 00:19:41;;;;;;;9.93;3.20;;;;;;;;;;5044974;28;20214;-75
2022/05/29 00:22:10;;;;;;;7.50;2.70;;;;;;;;;;5045316;28;20306;-75
2022/05/29 00:24:37;;;;;;;6.83;2.77;;;;;;;;;;5045048;28;20204;-75
2022/05/29 00:27:05;;;;;;;8.90;2.80;;;;;;;;;;5045527;28;20661;-75
2022/05/29 00:29:35;;;;;;;9.43;3.07;;;;;;;;;;5045513;28;20206;-76
2022/05/29 00:32:02;;;;;;;8.07;2.67;;;;;;;;;;5045516;28;20311;-76
2022/05/29 00:34:29;;;;;;;10.83;2.60;;;;;;;;;;5045778;28;20242;-76
2022/05/29 00:36:59;;;;;;;6.70;2.87;;;;;;;;;;5045289;28;20215;-76
2022/05/29 00:39:26;;;;;;;8.80;2.50;;;;;;;;;;5045432;28;20206;-75
2022/05/29 00:41:54;;;;;;;11.43;2.90;;;;;;;;;;5043942;28;20314;-75
2022/05/29 00:44:23;;;;;;;8.40;3.17;;;;;;;;;;5045324;28;20207;-75
2022/05/29 00:46:51;;;;;;;12.20;2.50;;;;;;;;;;5043665;28;20202;-75
2022/05/29 00:49:20;;;;;;;5.90;2.33;;;;;;;;;;5043960;28;20208;-75
2022/05/29 00:51:49;;;;;;;4.57;2.13;;;;;;;;;;5044167;28;20234;-74
2022/05/29 00:54:18;;;;;;;11.27;2.43;;;;;;;;;;5043286;28;20221;-77
2022/05/29 00:56:45;;;;;;;8.57;2.80;;;;;;;;;;5044917;28;20210;-75
2022/05/29 00:59:14;;;;;;;8.93;2.63;;;;;;;;;;5045496;28;20206;-77
2022/05/29 01:01:42;;;;;;;4.40;2.20;;;;;;;;;;5045218;28;20223;-76
2022/05/29 01:04:09;;;;;;;8.53;2.23;;;;;;;;;;5043824;28;20211;-76
2022/05/29 01:06:37;;;;;;;6.00;2.47;;;;;;;;;;5044360;28;20649;-76
2022/05/29 01:09:05;;;;;;;7.87;2.33;;;;;;;;;;5045036;28;20221;-76
2022/05/29 01:11:37;;;;;;;7.77;2.90;;;;;;;;;;5045248;28;20225;-76
2022/05/29 01:14:09;;;;;;;6.57;2.57;;;;;;;;;;5043403;28;20211;-76
2022/05/29 01:16:39;;;;;;;9.27;2.80;;;;;;;;;;5043701;28;20207;-76
2022/05/29 01:19:25;;;;;;;7.80;2.57;;;;;;;;;;5045546;28;20215;-76
2022/05/29 01:22:00;;;;;;;11.83;3.03;;;;;;;;;;5044043;28;20222;-76
2022/05/29 01:24:40;;;;;;;5.10;2.33;;;;;;;;;;5043450;28;20203;-76
2022/05/29 01:27:15;;;;;;;8.10;2.37;;;;;;;;;;5045661;28;20245;-75
2022/05/29 01:29:51;;;;;;;10.63;2.30;;;;;;;;;;5042587;28;20309;-75
2022/05/29 01:32:20;;;;;;;5.47;2.10;;;;;;;;;;5041825;28;20238;-75
2022/05/29 01:34:48;;;;;;;8.83;2.70;;;;;;;;;;5044528;28;20199;-75
2022/05/29 01:37:17;;;;;;;4.97;2.27;;;;;;;;;;5047722;28;20664;-75
2022/05/29 01:39:50;;;;;;;9.17;2.40;;;;;;;;;;5042917;28;20219;-75
2022/05/29 01:42:20;;;;;;;7.40;2.20;;;;;;;;;;5043734;28;20270;-75
2022/05/29 01:44:52;;;;;;;6.63;2.20;;;;;;;;;;5044551;28;20206;-75
2022/05/29 01:47:21;;;;;;;6.07;2.80;;;;;;;;;;5044842;28;20211;-75
2022/05/29 01:49:50;;;;;;;9.73;2.50;;;;;;;;;;5043329;28;20272;-75
2022/05/29 01:52:20;;;;;;;6.00;2.17;;;;;;;;;;5043202;28;20269;-75
2022/05/29 01:54:49;;;;;;;4.20;2.10;;;;;;;;;;5044516;28;20214;-75
2022/05/29 01:57:17;;;;;;;7.07;1.80;;;;;;;;;;5042841;28;20212;-77
2022/05/29 01:59:48;;;;;;;6.10;2.10;;;;;;;;;;5044407;28;20210;-77
2022/05/29 02:02:19;;;;;;;5.50;2.20;;;;;;;;;;5043571;28;20705;-77
2022/05/29 02:04:49;;;;;;;9.87;2.40;;;;;;;;;;5044469;28;20300;-75
2022/05/29 02:10:07;;;;;;;4.60;2.20;;;;;;;;;;5044038;28;20244;-77
2022/05/29 02:12:35;;;;;;;12.57;3.40;;;;;;;;;;5044389;28;20752;-77
2022/05/29 02:15:06;;;;;;;8.03;2.30;;;;;;;;;;5044602;28;20211;-77
2022/05/29 02:17:39;;;;;;;13.03;2.50;;;;;;;;;;5043112;28;20210;-77
2022/05/29 02:20:09;;;;;;;7.67;2.30;;;;;;;;;;5045962;28;20214;-77
2022/05/29 02:22:37;;;;;;;11.00;2.77;;;;;;;;;;5044527;28;20772;-77
2022/05/29 02:25:06;;;;;;;6.80;2.10;;;;;;;;;;5043774;28;20744;-77
2022/05/29 02:27:35;;;;;;;6.50;2.60;;;;;;;;;;5045642;28;20294;-77
2022/05/29 02:30:03;;;;;;;5.43;2.30;;;;;;;;;;5043034;28;20662;-77
2022/05/29 02:32:33;;;;;;;7.23;2.30;;;;;;;;;;5043341;28;20236;-76
2022/05/29 02:35:05;;;;;;;5.43;2.40;;;;;;;;;;5043204;28;20211;-77
2022/05/29 02:37:37;;;;;;;5.23;2.20;;;;;;;;;;5043134;28;20198;-76
2022/05/29 02:40:08;;;;;;;8.90;2.87;;;;;;;;;;5043128;28;20210;-77
2022/05/29 02:42:41;;;;;;;4.40;2.17;;;;;;;;;;5042503;28;20234;-76
2022/05/29 02:45:12;;;;;;;7.23;2.70;;;;;;;;;;5044138;28;20221;-77
2022/05/29 02:47:42;;;;;;;9.53;2.77;;;;;;;;;;5044063;28;20261;-76
2022/05/29 02:50:24;;;;;;;4.87;2.27;;;;;;;;;;5044962;28;20239;-76
2022/05/29 02:52:53;;;;;;;6.57;2.10;;;;;;;;;;5043959;28;20222;-76
2022/05/29 02:55:20;;;;;;;9.93;2.60;;;;;;;;;;5049358;28;20207;-76
2022/05/29 02:57:47;;;;;;;5.73;2.10;;;;;;;;;;5049158;28;20780;-75
2022/05/29 03:00:15;;;;;;;5.07;1.73;;;;;;;;;;5047634;28;20206;-75
2022/05/29 03:02:47;;;;;;;6.30;2.10;;;;;;;;;;5047625;28;20265;-76
2022/05/29 03:05:18;;;;;;;8.70;2.20;;;;;;;;;;5047498;28;20670;-75
2022/05/29 03:07:52;;;;;;;14.77;2.20;;;;;;;;;;5048274;28;20199;-74
2022/05/29 03:10:21;;;;;;;4.80;2.20;;;;;;;;;;5047307;28;20205;-76
2022/05/29 03:12:54;;;;;;;4.63;2.20;;;;;;;;;;5047549;28;20230;-76
2022/05/29 03:15:26;;;;;;;9.43;2.00;;;;;;;;;;5047610;28;20707;-75
2022/05/29 03:17:57;;;;;;;3.50;1.90;;;;;;;;;;5047176;28;20688;-75
2022/05/29 03:20:26;;;;;;;6.97;1.97;;;;;;;;;;5048369;28;20666;-75
2022/05/29 03:22:58;;;;;;;6.57;1.80;;;;;;;;;;5047942;28;20258;-75
2022/05/29 03:25:29;;;;;;;5.63;2.07;;;;;;;;;;5048977;28;20294;-76
2022/05/29 03:27:58;;;;;;;10.43;2.33;;;;;;;;;;5047355;28;20222;-76
2022/05/29 03:30:28;;;;;;;5.33;2.27;;;;;;;;;;5050228;28;20203;-76
2022/05/29 03:32:56;;;;;;;8.27;2.30;;;;;;;;;;5049578;28;20231;-75
2022/05/29 03:35:26;;;;;;;5.93;1.87;;;;;;;;;;5046622;28;20203;-74
2022/05/29 03:37:53;;;;;;;4.50;1.80;;;;;;;;;;5048103;28;20203;-76
2022/05/29 03:40:22;;;;;;;7.43;2.13;;;;;;;;;;5046359;28;20332;-76
2022/05/29 03:42:49;;;;;;;6.10;1.80;;;;;;;;;;5048246;28;20237;-75
2022/05/29 03:45:16;;;;;;;5.80;1.87;;;;;;;;;;5046641;28;20215;-75
2022/05/29 03:47:43;;;;;;;4.23;2.00;;;;;;;;;;5047729;28;20215;-75
2022/05/29 03:50:12;;;;;;;6.23;2.40;;;;;;;;;;5048143;28;20195;-75
2022/05/29 03:52:39;;;;;;;4.90;2.07;;;;;;;;;;5048780;28;20310;-76
2022/05/29 03:55:07;;;;;;;9.90;2.60;;;;;;;;;;5047318;28;20203;-75
2022/05/29 03:57:35;;;;;;;5.73;2.30;;;;;;;;;;5045890;28;20307;-76
2022/05/29 04:00:02;;;;;;;5.57;1.73;;;;;;;;;;5049006;28;20203;-76
2022/05/29 04:02:30;;;;;;;5.07;1.70;;;;;;;;;;5046825;28;20273;-76
2022/05/29 04:04:57;;;;;;;6.40;2.00;;;;;;;;;;5044793;28;20249;-77
2022/05/29 04:12:03;;;;;;;4.60;2.03;;;;;;;;;;5048476;28;20207;-76
2022/05/29 04:12:58;;;;;;;11.53;1.93;;;;;;;;;;5048195;28;20276;-75
2022/05/29 04:15:27;;;;;;;4.13;1.60;;;;;;;;;;5047403;28;20211;-76
2022/05/29 04:17:55;;;;;;;6.33;2.33;;;;;;;;;;5046798;28;20633;-75
2022/05/29 04:20:22;;;;;;;5.00;1.73;;;;;;;;;;5046543;28;20579;-75
2022/05/29 04:22:49;;;;;;;4.47;1.60;;;;;;;;;;5046305;28;20224;-75
2022/05/29 04:25:16;;;;;;;6.33;1.80;;;;;;;;;;5047232;28;20246;-76
2022/05/29 04:27:43;;;;;;;4.83;1.43;;;;;;;;;;5047852;28;20215;-75
2022/05/29 04:30:13;;;;;;;6.57;1.87;;;;;;;;;;5046314;28;20203;-76
2022/05/29 04:33:01;;;;;;;3.77;1.40;;;;;;;;;;5048016;28;20238;-75
2022/05/29 04:35:29;;;;;;;4.23;1.57;;;;;;;;;;5046587;28;20290;-75
2022/05/29 04:37:56;;;;;;;4.47;1.60;;;;;;;;;;5047210;28;20729;-76
2022/05/29 04:40:23;;;;;;;4.83;1.60;;;;;;;;;;5046416;28;20385;-74
2022/05/29 04:42:51;;;;;;;3.70;1.60;;;;;;;;;;5045699;28;20232;-73
2022/05/29 04:45:19;;;;;;;4.30;1.33;;;;;;;;;;5046872;28;20234;-74
2022/05/29 04:47:46;;;;;;;7.67;1.80;;;;;;;;;;5045748;28;20198;-74
2022/05/29 04:50:14;;;;;;;6.10;1.50;;;;;;;;;;5045044;28;20215;-74
2022/05/29 04:52:41;;;;;;;5.27;1.70;;;;;;;;;;5044940;28;20258;-74
2022/05/29 04:55:09;;;;;;;7.53;1.27;;;;;;;;;;5045761;28;20237;-75
2022/05/29 04:57:36;;;;;;;3.10;1.37;;;;;;;;;;5045289;28;20212;-74
2022/05/29 05:00:03;;;;;;;4.30;1.50;;;;;;;;;;5046221;28;20210;-74
2022/05/29 05:02:32;;;;;;;5.13;1.70;;;;;;;;;;5046153;28;20226;-74
2022/05/29 05:04:59;;;;;;;4.33;1.27;;;;;;;;;;5046179;28;20207;-74
2022/05/29 05:07:26;;;;;;;3.37;1.37;;;;;;;;;;5046999;28;20217;-74
2022/05/29 05:09:53;;;;;;;6.07;1.73;;;;;;;;;;5045004;28;20207;-74
2022/05/29 05:12:20;;;;;;;6.67;1.43;;;;;;;;;;5046806;28;20318;-74
2022/05/29 05:14:47;;;;;;;5.10;1.50;;;;;;;;;;5045990;28;20233;-74
2022/05/29 05:17:15;;;;;;;3.93;1.57;;;;;;;;;;5043933;28;20210;-76
2022/05/29 05:19:43;;;;;;;4.67;1.70;;;;;;;;;;5044276;28;20214;-73
2022/05/29 05:22:10;;;;;;;4.87;1.40;;;;;;;;;;5045592;28;20231;-76
2022/05/29 05:24:38;;;;;;;6.63;1.60;;;;;;;;;;5045300;28;20206;-74
2022/05/29 05:27:06;;;;;;;4.10;1.70;;;;;;;;;;5044712;28;20284;-76
2022/05/29 05:29:33;;;;;;;3.97;1.53;;;;;;;;;;5046563;28;20213;-73
2022/05/29 05:32:00;;;;;;;6.87;1.60;;;;;;;;;;5044179;28;20230;-74
2022/05/29 05:34:28;;;;;;;5.27;1.50;;;;;;;;;;5045293;28;20231;-74
2022/05/29 05:36:56;;;;;;;3.77;1.70;;;;;;;;;;5046155;28;20203;-73
2022/05/29 05:39:24;;;;;;;6.00;1.70;;;;;;;;;;5045055;28;20577;-76
2022/05/29 05:41:51;;;;;;;4.27;1.50;;;;;;;;;;5045547;28;20230;-75
2022/05/29 05:44:18;;;;;;;5.63;1.60;;;;;;;;;;5043962;28;20260;-75
2022/05/29 05:46:46;;;;;;;4.37;1.70;;;;;;;;;;5044995;28;20289;-75
2022/05/29 05:49:13;;;;;;;6.50;1.50;;;;;;;;;;5044695;28;20730;-75
2022/05/29 05:51:41;;;;;;;7.37;1.93;;;;;;;;;;5045344;28;20716;-75
2022/05/29 05:54:09;;;;;;;9.10;1.60;;;;;;;;;;5039916;28;20309;-74
2022/05/29 05:56:36;;;;;;;5.10;1.40;;;;;;;;;;5041070;28;20732;-75
2022/05/29 05:59:03;;;;;;;6.53;1.70;;;;;;;;;;5041788;28;20213;-73
2022/05/29 06:01:30;;;;;;;5.53;1.60;;;;;;;;;;5040745;28;20314;-75
2022/05/29 06:03:58;;;;;;;3.43;1.07;;;;;;;;;;5039521;28;20235;-75
2022/05/29 06:06:25;;;;;;;9.93;1.80;;;;;;;;;;5039097;28;20207;-74
2022/05/29 06:08:52;;;;;;;8.93;1.80;;;;;;;;;;5039819;28;20203;-73
2022/05/29 06:11:20;;;;;;;6.00;1.40;;;;;;;;;;5043063;28;20290;-73
2022/05/29 06:13:47;;;;;;;4.87;1.20;;;;;;;;;;5041379;28;20278;-73
2022/05/29 06:16:15;;;;;;;8.00;1.40;;;;;;;;;;5040819;28;20200;-74
2022/05/29 06:18:42;;;;;;;5.70;1.77;;;;;;;;;;5041609;28;20553;-74
2022/05/29 06:21:09;;;;;;;3.47;1.20;;;;;;;;;;5038860;28;20637;-74
2022/05/29 06:23:38;;;;;;;10.13;1.90;;;;;;;;;;5042445;28;20207;-74
2022/05/29 06:26:07;;;;;;;7.50;1.60;;;;;;;;;;5040514;28;20701;-74
2022/05/29 06:28:35;;;;;;;5.60;1.20;;;;;;;;;;5041188;28;20580;-74
2022/05/29 06:31:04;;;;;;;5.97;1.60;;;;;;;;;;5041034;28;20217;-75
2022/05/29 06:33:31;;;;;;;10.97;1.90;;;;;;;;;;5041451;28;20227;-74
2022/05/29 06:36:06;;;;;;;7.60;1.47;;;;;;;;;;5040974;28;20210;-74
2022/05/29 06:38:33;;;;;;;6.37;1.20;;;;;;;;;;5038693;28;20297;-73
2022/05/29 06:41:01;;;;;;;5.47;1.30;;;;;;;;;;5039405;28;20200;-74
2022/05/29 06:43:28;;;;;;;7.53;1.70;;;;;;;;;;5043702;28;20249;-73
2022/05/29 06:45:59;;;;;;;6.23;1.67;;;;;;;;;;5037042;28;20215;-73
2022/05/29 06:48:27;;;;;;;4.77;1.40;;;;;;;;;;5040591;28;20207;-74
2022/05/29 06:50:54;;;;;;;3.27;1.07;;;;;;;;;;5041163;28;20203;-74
2022/05/29 06:53:21;;;;;;;3.87;1.43;;;;;;;;;;5039556;28;20231;-74
2022/05/29 06:55:52;;;;;;;3.87;1.50;;;;;;;;;;5039127;28;20661;-74
2022/05/29 06:58:19;;;;;;;6.87;1.40;;;;;;;;;;5036340;28;20213;-74
2022/05/29 07:09:04;;;;;;;4.40;1.30;;;;;;;;;;5042477;28;20210;-74
2022/05/29 07:11:35;;;;;;;4.53;1.10;;;;;;;;;;5040412;28;20234;-74
2022/05/29 07:14:04;;;;;;;5.27;1.43;;;;;;;;;;5039617;28;20682;-73
2022/05/29 07:16:31;;;;;;;6.13;1.50;;;;;;;;;;5036701;28;20572;-73
2022/05/29 07:19:00;;;;;;;5.47;1.30;;;;;;;;;;5037690;28;20590;-74
2022/05/29 07:21:28;;;;;;;6.20;1.20;;;;;;;;;;5039261;28;20888;-74
2022/05/29 07:23:55;;;;;;;7.83;1.63;;;;;;;;;;5042526;28;20218;-73
2022/05/29 07:26:23;;;;;;;2.27;1.10;;;;;;;;;;5037211;28;20629;-73
2022/05/29 07:28:50;;;;;;;6.93;1.27;;;;;;;;;;5038617;28;20211;-74
2022/05/29 07:31:17;;;;;;;4.90;1.30;;;;;;;;;;5039447;28;20294;-74
2022/05/29 07:33:46;;;;;;;5.73;1.33;;;;;;;;;;5038455;28;20619;-74
2022/05/29 07:36:14;;;;;;;6.07;1.40;;;;;;;;;;5044524;28;20199;-74
2022/05/29 07:38:42;;;;;;;6.97;1.47;;;;;;;;;;5041118;28;20501;-73
2022/05/29 07:43:50;;;;;;;5.73;1.40;;;;;;;;;;5039596;28;20235;-73
2022/05/29 07:46:17;;;;;;;6.17;1.83;;;;;;;;;;5041715;28;20298;-73
2022/05/29 07:48:44;;;;;;;5.67;1.47;;;;;;;;;;5043000;28;20290;-74
2022/05/29 07:51:11;;;;;;;6.80;1.70;;;;;;;;;;5042752;28;20210;-73
2022/05/29 07:53:40;;;;;;;6.07;1.43;;;;;;;;;;5043155;28;20217;-74
2022/05/29 07:56:07;;;;;;;6.83;1.57;;;;;;;;;;5042167;28;20223;-73
2022/05/29 07:58:38;;;;;;;4.00;1.40;;;;;;;;;;5042033;28;20211;-74
2022/05/29 08:01:05;;;;;;;4.87;1.43;;;;;;;;;;5040509;28;20670;-76
2022/05/29 08:03:32;;;;;;;6.50;1.40;;;;;;;;;;5042964;28;20262;-75
2022/05/29 08:05:59;;;;;;;6.30;1.50;;;;;;;;;;5046858;28;20700;-75
2022/05/29 08:08:28;;;;;;;5.77;1.47;;;;;;;;;;5040855;28;20662;-75
2022/05/29 08:10:57;;;;;;;3.30;1.60;;;;;;;;;;5043688;28;20206;-75
2022/05/29 08:13:24;;;;;;;4.30;1.30;;;;;;;;;;5042468;28;20227;-76
2022/05/29 08:15:51;;;;;;;3.20;1.20;;;;;;;;;;5044656;28;20852;-77
2022/05/29 08:18:18;;;;;;;3.20;1.00;;;;;;;;;;5039418;28;20656;-76
2022/05/29 08:20:45;;;;;;;4.50;1.40;;;;;;;;;;5043880;28;20286;-76
2022/05/29 08:23:13;;;;;;;2.83;1.07;;;;;;;;;;5046182;28;20225;-76
2022/05/29 08:31:12;;;;;;;2.17;0.80;;;;;;;;;;5039133;28;20299;-76
2022/05/29 08:33:39;;;;;;;3.10;1.03;;;;;;;;;;5043106;28;20689;-76
2022/05/29 08:36:08;;;;;;;2.40;1.27;;;;;;;;;;5044397;28;20322;-75
2022/05/29 08:38:36;;;;;;;5.50;1.30;;;;;;;;;;5036921;28;20350;-76
2022/05/29 08:41:05;;;;;;;3.57;1.30;;;;;;;;;;5041264;28;20576;-76
2022/05/29 08:43:36;;;;;;;6.17;1.43;;;;;;;;;;5041795;28;20305;-76
2022/05/29 08:46:06;;;;;;;5.67;1.30;;;;;;;;;;5040022;28;20537;-76
2022/05/29 08:48:33;;;;;;;2.80;1.07;;;;;;;;;;5043867;28;20204;-76
2022/05/29 08:51:06;;;;;;;3.53;1.10;;;;;;;;;;5040010;28;20693;-75
2022/05/29 08:53:37;;;;;;;5.83;1.77;;;;;;;;;;5037999;28;20232;-76
2022/05/29 08:56:09;;;;;;;4.70;1.50;;;;;;;;;;5041076;28;20218;-76
2022/05/29 08:58:44;;;;;;;3.37;1.30;;;;;;;;;;5038330;28;20219;-75
2022/05/29 09:01:16;;;;;;;4.97;1.83;;;;;;;;;;5040662;28;20293;-75
2022/05/29 09:03:47;;;;;;;6.43;1.80;;;;;;;;;;5043158;28;20548;-75
2022/05/29 09:06:16;;;;;;;3.50;1.30;;;;;;;;;;5044019;28;20199;-75
2022/05/29 09:08:45;;;;;;;5.73;1.80;;;;;;;;;;5037115;28;20230;-75
2022/05/29 09:11:17;;;;;;;2.90;1.47;;;;;;;;;;5040301;28;20585;-76
2022/05/29 09:13:48;;;;;;;3.97;2.23;;;;;;;;;;5045506;28;20199;-76
2022/05/29 09:16:17;;;;;;;5.37;1.70;;;;;;;;;;5039029;28;20658;-76
2022/05/29 09:18:47;;;;;;;3.67;1.77;;;;;;;;;;5038178;28;20226;-75
2022/05/29 09:21:17;;;;;;;4.23;1.83;;;;;;;;;;5041322;28;20207;-75
2022/05/29 09:23:48;;;;;;;5.73;1.60;;;;;;;;;;5045146;28;20207;-75
2022/05/29 09:26:18;;;;;;;6.30;1.77;;;;;;;;;;5041495;28;20206;-75
2022/05/29 09:28:47;;;;;;;2.23;1.40;;;;;;;;;;5041914;28;20208;-75
2022/05/29 09:31:17;;;;;;;5.30;1.60;;;;;;;;;;5041836;28;20581;-75
2022/05/29 09:33:44;;;;;;;2.13;1.20;;;;;;;;;;5037777;28;20222;-75
2022/05/29 09:36:16;;;;;;;3.17;1.60;;;;;;;;;;5041260;28;20237;-75
2022/05/29 09:38:45;;;;;;;3.40;1.60;;;;;;;;;;5039704;28;20606;-75
2022/05/29 09:41:15;;;;;;;3.93;1.67;;;;;;;;;;5039406;28;20203;-75
2022/05/29 09:44:02;;;;;;;6.03;2.23;;;;;;;;;;5041822;28;20290;-75
2022/05/29 09:46:32;;;;;;;4.90;2.43;;;;;;;;;;5040447;28;20248;-76
2022/05/29 09:51:46;;;;;;;7.30;3.13;;;;;;;;;;5040039;28;20231;-75
2022/05/29 09:54:21;;;;;;;4.27;2.80;;;;;;;;;;5040594;28;20218;-74
2022/05/29 09:56:49;;;;;;;6.70;3.30;;;;;;;;;;5036839;28;20199;-76
2022/05/29 09:59:18;;;;;;;4.80;3.60;;;;;;;;;;5039241;28;20212;-75
2022/05/29 10:01:47;;;;;;;6.17;3.00;;;;;;;;;;5040409;28;20313;-75
2022/05/29 10:04:16;;;;;;;8.07;3.93;;;;;;;;;;5042874;28;20208;-75
2022/05/29 10:06:46;;;;;;;5.73;3.47;;;;;;;;;;5039119;28;20280;-76
2022/05/29 10:09:17;;;;;;;5.57;3.00;;;;;;;;;;5039373;28;20203;-75
2022/05/29 10:11:45;;;;;;;6.60;3.27;;;;;;;;;;5037700;28;20322;-77
2022/05/29 10:14:21;;;;;;;8.40;3.37;;;;;;;;;;5042078;28;20241;-75
2022/05/29 10:16:50;;;;;;;5.70;3.20;;;;;;;;;;5042057;28;20203;-75
2022/05/29 10:19:32;;;;;;;4.50;2.67;;;;;;;;;;5042461;28;20211;-75
2022/05/29 10:21:59;;;;;;;5.53;2.90;;;;;;;;;;5044125;28;20221;-76
2022/05/29 10:24:31;;;;;;;6.53;3.77;;;;;;;;;;5038170;28;20234;-75
2022/05/29 10:27:00;;;;;;;5.80;3.30;;;;;;;;;;5038818;28;20236;-75
2022/05/29 10:29:28;;;;;;;5.30;3.17;;;;;;;;;;5039540;28;20234;-75
2022/05/29 10:31:58;;;;;;;5.40;3.43;;;;;;;;;;5039577;28;20579;-77
2022/05/29 10:34:26;;;;;;;8.73;3.40;;;;;;;;;;5038435;28;20308;-76
2022/05/29 10:36:54;;;;;;;6.00;3.33;;;;;;;;;;5040165;28;20313;-76
2022/05/29 10:39:23;;;;;;;6.10;3.50;;;;;;;;;;5042744;28;20334;-76
2022/05/29 10:41:51;;;;;;;5.17;2.90;;;;;;;;;;5041746;28;20322;-74
2022/05/29 10:44:33;;;;;;;4.23;2.53;;;;;;;;;;5040245;28;20216;-74
2022/05/29 10:47:05;;;;;;;2.60;2.10;;;;;;;;;;5042911;28;20199;-75
2022/05/29 10:49:34;;;;;;;4.53;2.37;;;;;;;;;;5040035;28;20206;-76
2022/05/29 10:52:18;;;;;;;3.67;2.10;;;;;;;;;;5039302;28;20247;-76
2022/05/29 10:55:04;;;;;;;1.97;1.57;;;;;;;;;;5040191;28;20210;-76
2022/05/29 10:57:42;;;;;;;2.13;1.60;;;;;;;;;;5037921;28;20293;-76
2022/05/29 11:00:16;;;;;;;4.63;2.00;;;;;;;;;;5038669;28;20620;-76
2022/05/29 11:05:50;;;;;;;3.00;1.87;;;;;;;;;;5041416;28;20293;-75
2022/05/29 11:08:23;;;;;;;2.07;1.60;;;;;;;;;;5039434;28;20214;-75
2022/05/29 11:10:58;;;;;;;2.10;1.60;;;;;;;;;;5043920;28;20662;-75
2022/05/29 11:13:32;;;;;;;2.70;1.87;;;;;;;;;;5041642;28;20218;-76
2022/05/29 11:16:05;;;;;;;2.50;1.80;;;;;;;;;;5042789;28;20214;-76
2022/05/29 11:18:50;;;;;;;1.23;1.10;;;;;;;;;;5044299;28;20669;-76
2022/05/29 11:21:21;;;;;;;1.30;1.20;;;;;;;;;;5045549;28;20242;-76
2022/05/29 11:23:58;;;;;;;1.57;1.20;;;;;;;;;;5044377;28;20223;-77
2022/05/29 11:26:33;;;;;;;1.70;1.13;;;;;;;;;;5042612;28;20632;-76
2022/05/29 11:29:18;;;;;;;2.23;1.30;;;;;;;;;;5046646;28;20206;-75
2022/05/29 11:31:49;;;;;;;3.73;1.40;;;;;;;;;;5040623;28;20235;-75
2022/05/29 11:34:26;;;;;;;1.90;1.07;;;;;;;;;;5045860;28;20202;-77
2022/05/29 11:37:04;;;;;;;2.03;1.63;;;;;;;;;;5044719;28;20215;-76
2022/05/29 11:39:33;;;;;;;1.50;1.20;;;;;;;;;;5046271;28;20203;-75
2022/05/29 11:42:05;;;;;;;3.57;1.80;;;;;;;;;;5044662;28;20227;-75
2022/05/29 11:44:34;;;;;;;2.13;1.67;;;;;;;;;;5042563;28;20206;-76
2022/05/29 11:52:43;;;;;;;2.50;1.50;;;;;;;;;;5042494;28;20234;-77
2022/05/29 11:55:13;;;;;;;2.73;1.30;;;;;;;;;;5045585;28;20423;-76
2022/05/29 11:57:43;;;;;;;3.73;1.60;;;;;;;;;;5042828;28;20258;-76
2022/05/29 12:00:13;;;;;;;3.00;1.40;;;;;;;;;;5043504;28;20200;-75
2022/05/29 12:02:42;;;;;;;5.37;1.63;;;;;;;;;;5048141;28;20289;-77
2022/05/29 12:05:14;;;;;;;4.13;1.60;;;;;;;;;;5045361;28;20675;-75
2022/05/29 12:07:45;;;;;;;2.90;1.53;;;;;;;;;;5044917;28;20210;-78
2022/05/29 12:10:16;;;;;;;1.83;1.40;;;;;;;;;;5044651;28;20195;-77
2022/05/29 12:12:45;;;;;;;3.27;1.80;;;;;;;;;;5042402;28;20725;-76
2022/05/29 12:15:15;;;;;;;4.03;1.57;;;;;;;;;;5044103;28;20239;-76
2022/05/29 12:17:44;;;;;;;2.37;1.70;;;;;;;;;;5044635;28;20593;-76
2022/05/29 12:20:12;;;;;;;3.33;1.50;;;;;;;;;;5044516;28;20281;-75
2022/05/29 12:22:41;;;;;;;2.10;1.40;;;;;;;;;;5042408;28;20317;-75
2022/05/29 12:25:23;;;;;;;2.20;1.53;;;;;;;;;;5043959;28;20217;-76
2022/05/29 12:27:51;;;;;;;4.97;2.00;;;;;;;;;;5043331;28;20306;-77
2022/05/29 12:30:21;;;;;;;3.50;1.40;;;;;;;;;;5045295;28;20209;-76
2022/05/29 12:32:48;;;;;;;1.93;1.53;;;;;;;;;;5047401;28;20227;-76
2022/05/29 12:35:18;;;;;;;6.37;1.50;;;;;;;;;;5042573;28;20203;-76
2022/05/29 12:37:57;;;;;;;2.97;1.80;;;;;;;;;;5046078;28;20289;-75
2022/05/29 12:40:40;;;;;;;3.57;2.10;;;;;;;;;;5046396;28;20638;-76
2022/05/29 12:43:19;;;;;;;2.93;1.90;;;;;;;;;;5042156;28;20233;-75
2022/05/29 12:45:50;;;;;;;3.27;2.10;;;;;;;;;;5040882;28;20202;-75
2022/05/29 12:48:25;;;;;;;3.97;1.83;;;;;;;;;;5045180;28;20213;-76
2022/05/29 12:51:10;;;;;;;2.73;1.70;;;;;;;;;;5047224;28;20297;-76
2022/05/29 12:53:51;;;;;;;2.40;1.40;;;;;;;;;;5045766;28;20221;-76
2022/05/29 12:56:35;;;;;;;1.80;1.20;;;;;;;;;;5042266;28;20218;-76
2022/05/29 12:59:13;;;;;;;3.00;1.57;;;;;;;;;;5043402;28;20281;-76
2022/05/29 13:01:49;;;;;;;1.47;1.30;;;;;;;;;;5044941;28;20241;-76
2022/05/29 13:04:25;;;;;;;1.93;1.30;;;;;;;;;;5044139;28;20199;-76
2022/05/29 13:07:16;;;;;;;1.23;1.00;;;;;;;;;;5043056;28;20196;-76
2022/05/29 13:10:01;;;;;;;2.33;1.00;;;;;;;;;;5047630;28;20685;-76
2022/05/29 13:12:31;;;;;;;1.17;1.00;;;;;;;;;;5042407;28;20227;-76
2022/05/29 13:15:02;;;;;;;1.73;0.93;;;;;;;;;;5040888;28;20231;-76
2022/05/29 13:17:31;;;;;;;2.43;0.97;;;;;;;;;;5043691;28;20712;-76
2022/05/29 13:20:04;;;;;;;1.27;0.90;;;;;;;;;;5041282;28;20252;-76
2022/05/29 13:22:51;;;;;;;2.53;0.90;;;;;;;;;;5040832;28;20720;-76
2022/05/29 13:25:20;;;;;;;3.03;1.30;;;;;;;;;;5042104;28;20218;-76
2022/05/29 13:27:49;;;;;;;2.70;1.40;;;;;;;;;;5038512;28;20211;-76
2022/05/29 13:30:34;;;;;;;2.90;1.50;;;;;;;;;;5043045;28;20290;-76
2022/05/29 13:33:16;;;;;;;2.17;1.13;;;;;;;;;;5010765;28;20241;-76
2022/05/29 13:35:44;;;;;;;2.73;1.40;;;;;;;;;;5040445;28;20204;-76
2022/05/29 13:38:11;;;;;;;3.07;1.10;;;;;;;;;;5039704;28;20270;-76
2022/05/29 13:40:41;;;;;;;2.00;1.30;;;;;;;;;;5041795;28;20243;-76
2022/05/29 13:43:37;;;;;;;1.23;1.00;;;;;;;;;;5041140;28;20705;-76
2022/05/29 13:46:26;;;;;;;2.30;1.50;;;;;;;;;;5041678;28;20211;-77
2022/05/29 13:49:04;;;;;;;4.00;1.50;;;;;;;;;;5039911;28;20677;-76
2022/05/29 13:51:35;;;;;;;3.00;1.60;;;;;;;;;;5039635;28;20211;-76
2022/05/29 13:54:03;;;;;;;3.27;1.50;;;;;;;;;;5044290;28;20214;-77
2022/05/29 13:56:45;;;;;;;3.00;1.60;;;;;;;;;;5039296;28;20262;-76
2022/05/29 14:04:52;;;;;;;1.73;1.30;;;;;;;;;;5040459;28;20279;-76
2022/05/29 14:07:24;;;;;;;5.23;1.67;;;;;;;;;;5041479;28;20200;-76
2022/05/29 14:10:04;;;;;;;3.17;1.60;;;;;;;;;;5042793;28;20280;-77
2022/05/29 14:12:50;;;;;;;2.30;1.40;;;;;;;;;;5040089;28;20251;-76
2022/05/29 14:15:31;;;;;;;3.57;1.80;;;;;;;;;;5042634;28;20213;-75
2022/05/29 14:17:59;;;;;;;2.40;1.30;;;;;;;;;;5038671;28;20211;-77
2022/05/29 14:20:30;;;;;;;4.03;1.30;;;;;;;;;;5043282;28;20214;-76
2022/05/29 14:23:17;;;;;;;2.00;1.30;;;;;;;;;;5045546;28;20326;-76
2022/05/29 14:25:51;;;;;;;3.90;1.40;;;;;;;;;;5041171;28;20221;-75
2022/05/29 14:28:24;;;;;;;2.00;1.30;;;;;;;;;;5037998;28;20210;-76
2022/05/29 14:31:16;;;;;;;1.87;1.50;;;;;;;;;;5042423;28;20222;-76
2022/05/29 14:33:59;;;;;;;1.87;1.10;;;;;;;;;;5027990;28;20211;-77
2022/05/29 14:36:32;;;;;;;1.90;1.13;;;;;;;;;;5041441;28;20653;-76
2022/05/29 14:39:14;;;;;;;10.03;1.83;;;;;;;;;;5041022;28;20217;-76
2022/05/29 14:41:43;;;;;;;1.70;0.90;;;;;;;;;;5027623;28;20304;-76
2022/05/29 14:44:13;;;;;;;2.00;1.10;;;;;;;;;;5039372;28;20692;-76
2022/05/29 14:46:51;;;;;;;1.00;0.90;;;;;;;;;;5038292;28;20203;-76
2022/05/29 14:49:22;;;;;;;2.03;1.23;;;;;;;;;;5046566;28;20214;-76
2022/05/29 14:51:50;;;;;;;2.60;1.00;;;;;;;;;;5042929;28;20709;-76
2022/05/29 14:54:20;;;;;;;1.30;0.80;;;;;;;;;;5043306;28;20214;-76
2022/05/29 14:56:55;;;;;;;2.67;1.07;;;;;;;;;;5043443;28;20223;-76
2022/05/29 14:59:23;;;;;;;2.60;1.03;;;;;;;;;;5045759;28;20776;-76
2022/05/29 15:01:52;;;;;;;2.60;0.80;;;;;;;;;;5047935;28;20226;-76
2022/05/29 15:04:24;;;;;;;2.60;0.97;;;;;;;;;;5047096;28;20288;-76
2022/05/29 15:12:22;;;;;;;2.60;0.90;;;;;;;;;;5048885;28;20225;-76
2022/05/29 15:14:49;;;;;;;2.77;0.80;;;;;;;;;;5044949;28;20264;-76
2022/05/29 15:17:22;;;;;;;1.47;0.60;;;;;;;;;;5047043;28;20314;-77
2022/05/29 15:24:08;;;;;;;1.40;0.70;;;;;;;;;;5045009;28;20206;-77
2022/05/29 15:25:43;;;;;;;2.03;0.70;;;;;;;;;;5043594;28;20234;-76
2022/05/29 15:28:11;;;;;;;2.27;0.70;;;;;;;;;;5046107;28;20230;-76
2022/05/29 15:30:40;;;;;;;3.80;0.80;;;;;;;;;;5048987;28;20772;-76
2022/05/29 15:33:10;;;;;;;2.70;0.80;;;;;;;;;;5045513;28;20238;-76
2022/05/29 15:35:42;;;;;;;1.47;0.73;;;;;;;;;;5041882;28;20297;-75
2022/05/29 15:38:15;;;;;;;2.33;0.60;;;;;;;;;;5041436;28;20678;-76
2022/05/29 15:40:50;;;;;;;2.23;0.50;;;;;;;;;;5045949;28;20207;-75
2022/05/29 15:43:38;;;;;;;1.63;0.60;;;;;;;;;;5040020;28;20265;-76
2022/05/29 15:46:16;;;;;;;1.43;0.40;;;;;;;;;;5042606;28;20213;-76
2022/05/29 15:49:00;;;;;;;2.60;0.60;;;;;;;;;;5042729;28;20215;-77
2022/05/29 15:51:33;;;;;;;0.50;0.40;;;;;;;;;;5041026;28;20211;-76
2022/05/29 15:54:08;;;;;;;0.63;0.47;;;;;;;;;;5042760;28;20215;-75